sensor_id;sensor_type;location;lat;lon;timestamp;P1;durP1;ratioP1;P2;durP2;ratioP2
14013;SDS011;49110;52.584;13.408;2024-01-07T00:00:01;18.75;;;17.55;;
14013;SDS011;49110;52.584;13.408;2024-01-07T00:01:02;19.92;;;18.58;;
14013;SDS011;49110;52.584;13.408;2024-01-07T00:02:02;20.20;;;18.67;;
14013;SDS011;49110;52.584;13.408;2024-01-07T00:03:03;20.60;;;19.20;;
14013;SDS011;49110;52.584;13.408;2024-01-07T00:04:03;21.30;;;20.00;;
14013;SDS011;49110;52.584;13.408;2024-01-07T00:05:04;22.83;;;21.37;;
14013;SDS011;49110;52.584;13.408;2024-01-07T00:06:05;20.83;;;19.33;;
14013;SDS011;49110;52.584;13.408;2024-01-07T00:07:05;22.00;;;20.60;;
14013;SDS011;49110;52.584;13.408;2024-01-07T00:08:06;20.20;;;18.80;;
14013;SDS011;49110;52.584;13.408;2024-01-07T00:09:06;20.50;;;19.03;;
14013;SDS011;49110;52.584;13.408;2024-01-07T00:10:07;34.07;;;31.90;;
14013;SDS011;49110;52.584;13.408;2024-01-07T00:11:08;20.83;;;19.50;;
14013;SDS011;49110;52.584;13.408;2024-01-07T00:12:09;20.73;;;19.37;;
14013;SDS011;49110;52.584;13.408;2024-01-07T00:13:09;21.23;;;19.73;;
14013;SDS011;49110;52.584;13.408;2024-01-07T00:14:10;21.60;;;20.13;;
14013;SDS011;49110;52.584;13.408;2024-01-07T00:15:10;22.40;;;21.00;;
14013;SDS011;49110;52.584;13.408;2024-01-07T00:16:11;21.70;;;20.30;;
14013;SDS011;49110;52.584;13.408;2024-01-07T00:17:12;20.67;;;19.27;;
14013;SDS011;49110;52.584;13.408;2024-01-07T00:18:12;21.43;;;20.07;;
14013;SDS011;49110;52.584;13.408;2024-01-07T00:19:13;22.20;;;20.70;;
14013;SDS011;49110;52.584;13.408;2024-01-07T00:20:13;20.97;;;19.43;;
14013;SDS011;49110;52.584;13.408;2024-01-07T00:21:14;21.47;;;19.97;;
14013;SDS011;49110;52.584;13.408;2024-01-07T00:22:14;19.93;;;18.53;;
14013;SDS011;49110;52.584;13.408;2024-01-07T00:23:15;18.77;;;17.47;;
14013;SDS011;49110;52.584;13.408;2024-01-07T00:24:15;16.93;;;15.83;;
14013;SDS011;49110;52.584;13.408;2024-01-07T00:25:16;23.00;;;21.50;;
14013;SDS011;49110;52.584;13.408;2024-01-07T00:26:18;21.88;;;20.40;;
14013;SDS011;49110;52.584;13.408;2024-01-07T00:27:18;23.63;;;22.13;;
14013;SDS011;49110;52.584;13.408;2024-01-07T00:28:19;21.30;;;19.90;;
14013;SDS011;49110;52.584;13.408;2024-01-07T00:29:19;21.63;;;20.33;;
14013;SDS011;49110;52.584;13.408;2024-01-07T00:30:20;23.43;;;21.93;;
14013;SDS011;49110;52.584;13.408;2024-01-07T00:31:20;21.77;;;20.37;;
14013;SDS011;49110;52.584;13.408;2024-01-07T00:32:21;21.43;;;20.13;;
14013;SDS011;49110;52.584;13.408;2024-01-07T00:33:21;19.63;;;18.27;;
14013;SDS011;49110;52.584;13.408;2024-01-07T00:34:22;20.40;;;19.03;;
14013;SDS011;49110;52.584;13.408;2024-01-07T00:35:23;19.33;;;18.20;;
14013;SDS011;49110;52.584;13.408;2024-01-07T00:36:23;19.20;;;18.00;;
14013;SDS011;49110;52.584;13.408;2024-01-07T00:37:24;21.33;;;20.07;;
14013;SDS011;49110;52.584;13.408;2024-01-07T00:38:24;24.07;;;22.57;;
14013;SDS011;49110;52.584;13.408;2024-01-07T00:39:24;20.20;;;19.00;;
14013;SDS011;49110;52.584;13.408;2024-01-07T00:40:25;22.03;;;20.50;;
14013;SDS011;49110;52.584;13.408;2024-01-07T00:41:26;20.15;;;18.88;;
14013;SDS011;49110;52.584;13.408;2024-01-07T00:42:26;19.23;;;17.97;;
14013;SDS011;49110;52.584;13.408;2024-01-07T00:43:27;20.23;;;19.00;;
14013;SDS011;49110;52.584;13.408;2024-01-07T00:44:27;19.13;;;17.83;;
14013;SDS011;49110;52.584;13.408;2024-01-07T00:45:28;19.93;;;18.67;;
14013;SDS011;49110;52.584;13.408;2024-01-07T00:46:28;18.70;;;17.50;;
14013;SDS011;49110;52.584;13.408;2024-01-07T00:47:29;17.03;;;15.97;;
14013;SDS011;49110;52.584;13.408;2024-01-07T00:48:29;17.07;;;16.07;;
14013;SDS011;49110;52.584;13.408;2024-01-07T00:49:30;15.73;;;14.80;;
14013;SDS011;49110;52.584;13.408;2024-01-07T00:50:31;18.63;;;17.13;;
14013;SDS011;49110;52.584;13.408;2024-01-07T00:51:31;18.57;;;17.47;;
14013;SDS011;49110;52.584;13.408;2024-01-07T00:52:32;16.53;;;15.43;;
14013;SDS011;49110;52.584;13.408;2024-01-07T00:53:32;16.00;;;14.90;;
14013;SDS011;49110;52.584;13.408;2024-01-07T00:54:33;32.87;;;30.97;;
14013;SDS011;49110;52.584;13.408;2024-01-07T00:55:33;16.37;;;15.47;;
14013;SDS011;49110;52.584;13.408;2024-01-07T00:56:35;16.88;;;15.77;;
14013;SDS011;49110;52.584;13.408;2024-01-07T00:57:36;18.13;;;17.03;;
14013;SDS011;49110;52.584;13.408;2024-01-07T00:58:36;20.10;;;18.70;;
14013;SDS011;49110;52.584;13.408;2024-01-07T00:59:37;18.27;;;17.17;;
14013;SDS011;49110;52.584;13.408;2024-01-07T01:00:38;18.37;;;17.27;;
14013;SDS011;49110;52.584;13.408;2024-01-07T01:01:38;18.40;;;17.30;;
14013;SDS011;49110;52.584;13.408;2024-01-07T01:02:39;17.27;;;16.23;;
14013;SDS011;49110;52.584;13.408;2024-01-07T01:03:39;17.33;;;16.33;;
14013;SDS011;49110;52.584;13.408;2024-01-07T01:04:40;18.30;;;17.20;;
14013;SDS011;49110;52.584;13.408;2024-01-07T01:05:40;15.83;;;14.93;;
14013;SDS011;49110;52.584;13.408;2024-01-07T01:06:41;18.63;;;17.53;;
14013;SDS011;49110;52.584;13.408;2024-01-07T01:07:41;19.07;;;17.83;;
14013;SDS011;49110;52.584;13.408;2024-01-07T01:08:42;16.23;;;15.23;;
14013;SDS011;49110;52.584;13.408;2024-01-07T01:09:42;15.40;;;14.43;;
14013;SDS011;49110;52.584;13.408;2024-01-07T01:10:43;17.03;;;15.93;;
14013;SDS011;49110;52.584;13.408;2024-01-07T01:11:43;16.97;;;15.77;;
14013;SDS011;49110;52.584;13.408;2024-01-07T01:12:44;17.60;;;16.60;;
14013;SDS011;49110;52.584;13.408;2024-01-07T01:13:45;18.20;;;17.10;;
14013;SDS011;49110;52.584;13.408;2024-01-07T01:14:45;17.63;;;16.53;;
14013;SDS011;49110;52.584;13.408;2024-01-07T01:15:45;18.67;;;17.60;;
14013;SDS011;49110;52.584;13.408;2024-01-07T01:16:46;18.77;;;17.63;;
14013;SDS011;49110;52.584;13.408;2024-01-07T01:17:46;16.67;;;15.57;;
14013;SDS011;49110;52.584;13.408;2024-01-07T01:18:47;16.33;;;15.33;;
14013;SDS011;49110;52.584;13.408;2024-01-07T01:19:47;17.50;;;16.50;;
14013;SDS011;49110;52.584;13.408;2024-01-07T01:20:48;17.60;;;16.37;;
14013;SDS011;49110;52.584;13.408;2024-01-07T01:21:48;13.90;;;13.00;;
14013;SDS011;49110;52.584;13.408;2024-01-07T01:22:49;14.43;;;13.53;;
14013;SDS011;49110;52.584;13.408;2024-01-07T01:23:49;13.73;;;12.83;;
14013;SDS011;49110;52.584;13.408;2024-01-07T01:24:49;14.03;;;13.17;;
14013;SDS011;49110;52.584;13.408;2024-01-07T01:25:51;13.63;;;12.73;;
14013;SDS011;49110;52.584;13.408;2024-01-07T01:26:51;15.73;;;14.83;;
14013;SDS011;49110;52.584;13.408;2024-01-07T01:27:52;15.87;;;14.93;;
14013;SDS011;49110;52.584;13.408;2024-01-07T01:28:52;14.07;;;13.17;;
14013;SDS011;49110;52.584;13.408;2024-01-07T01:29:52;15.80;;;14.80;;
14013;SDS011;49110;52.584;13.408;2024-01-07T01:30:53;16.90;;;15.80;;
14013;SDS011;49110;52.584;13.408;2024-01-07T01:31:53;16.67;;;15.67;;
14013;SDS011;49110;52.584;13.408;2024-01-07T01:32:54;17.43;;;16.43;;
14013;SDS011;49110;52.584;13.408;2024-01-07T01:33:54;14.77;;;13.77;;
14013;SDS011;49110;52.584;13.408;2024-01-07T01:34:55;16.37;;;15.30;;
14013;SDS011;49110;52.584;13.408;2024-01-07T01:35:55;16.07;;;15.17;;
14013;SDS011;49110;52.584;13.408;2024-01-07T01:36:56;16.27;;;15.20;;
14013;SDS011;49110;52.584;13.408;2024-01-07T01:37:56;15.13;;;14.03;;
14013;SDS011;49110;52.584;13.408;2024-01-07T01:38:57;15.43;;;14.43;;
14013;SDS011;49110;52.584;13.408;2024-01-07T01:39:57;15.90;;;14.80;;
14013;SDS011;49110;52.584;13.408;2024-01-07T01:40:58;15.20;;;14.10;;
14013;SDS011;49110;52.584;13.408;2024-01-07T01:41:58;12.90;;;12.07;;
14013;SDS011;49110;52.584;13.408;2024-01-07T01:42:59;13.90;;;13.00;;
14013;SDS011;49110;52.584;13.408;2024-01-07T01:44:00;14.93;;;13.93;;
14013;SDS011;49110;52.584;13.408;2024-01-07T01:45:01;14.23;;;13.32;;
14013;SDS011;49110;52.584;13.408;2024-01-07T01:46:02;15.52;;;14.60;;
14013;SDS011;49110;52.584;13.408;2024-01-07T01:47:03;13.93;;;13.03;;
14013;SDS011;49110;52.584;13.408;2024-01-07T01:48:05;14.25;;;13.30;;
14013;SDS011;49110;52.584;13.408;2024-01-07T01:49:09;15.20;;;14.00;;
14013;SDS011;49110;52.584;13.408;2024-01-07T01:50:09;15.20;;;14.30;;
14013;SDS011;49110;52.584;13.408;2024-01-07T01:51:11;15.07;;;14.18;;
14013;SDS011;49110;52.584;13.408;2024-01-07T01:52:12;15.93;;;15.00;;
14013;SDS011;49110;52.584;13.408;2024-01-07T01:53:13;14.85;;;13.95;;
14013;SDS011;49110;52.584;13.408;2024-01-07T01:54:15;14.82;;;13.93;;
14013;SDS011;49110;52.584;13.408;2024-01-07T01:55:16;13.65;;;12.82;;
14013;SDS011;49110;52.584;13.408;2024-01-07T01:56:18;14.57;;;13.70;;
14013;SDS011;49110;52.584;13.408;2024-01-07T01:57:21;15.50;;;14.52;;
14013;SDS011;49110;52.584;13.408;2024-01-07T01:58:24;15.20;;;14.25;;
14013;SDS011;49110;52.584;13.408;2024-01-07T01:59:26;16.23;;;15.23;;
14013;SDS011;49110;52.584;13.408;2024-01-07T02:00:28;15.75;;;14.75;;
14013;SDS011;49110;52.584;13.408;2024-01-07T02:01:29;17.87;;;16.80;;
14013;SDS011;49110;52.584;13.408;2024-01-07T02:02:31;15.45;;;14.48;;
14013;SDS011;49110;52.584;13.408;2024-01-07T02:03:34;16.35;;;15.38;;
14013;SDS011;49110;52.584;13.408;2024-01-07T02:04:34;17.10;;;15.90;;
14013;SDS011;49110;52.584;13.408;2024-01-07T02:05:35;16.97;;;15.97;;
14013;SDS011;49110;52.584;13.408;2024-01-07T02:06:35;16.37;;;15.27;;
14013;SDS011;49110;52.584;13.408;2024-01-07T02:07:36;16.80;;;15.77;;
14013;SDS011;49110;52.584;13.408;2024-01-07T02:08:37;18.70;;;17.53;;
14013;SDS011;49110;52.584;13.408;2024-01-07T02:09:39;18.42;;;17.23;;
14013;SDS011;49110;52.584;13.408;2024-01-07T02:10:40;17.10;;;16.00;;
14013;SDS011;49110;52.584;13.408;2024-01-07T02:11:40;17.13;;;16.13;;
14013;SDS011;49110;52.584;13.408;2024-01-07T02:12:41;14.55;;;13.57;;
14013;SDS011;49110;52.584;13.408;2024-01-07T02:13:42;14.83;;;13.93;;
14013;SDS011;49110;52.584;13.408;2024-01-07T02:14:42;15.00;;;14.00;;
14013;SDS011;49110;52.584;13.408;2024-01-07T02:15:43;15.00;;;14.00;;
14013;SDS011;49110;52.584;13.408;2024-01-07T02:16:44;14.93;;;14.00;;
14013;SDS011;49110;52.584;13.408;2024-01-07T02:17:44;15.53;;;14.40;;
14013;SDS011;49110;52.584;13.408;2024-01-07T02:18:45;14.93;;;13.90;;
14013;SDS011;49110;52.584;13.408;2024-01-07T02:19:48;14.03;;;13.03;;
14013;SDS011;49110;52.584;13.408;2024-01-07T02:20:49;13.07;;;12.18;;
14013;SDS011;49110;52.584;13.408;2024-01-07T02:21:50;14.33;;;13.47;;
14013;SDS011;49110;52.584;13.408;2024-01-07T02:22:51;16.88;;;15.77;;
14013;SDS011;49110;52.584;13.408;2024-01-07T02:23:52;16.00;;;14.90;;
14013;SDS011;49110;52.584;13.408;2024-01-07T02:24:52;16.73;;;15.63;;
14013;SDS011;49110;52.584;13.408;2024-01-07T02:25:53;17.43;;;16.33;;
14013;SDS011;49110;52.584;13.408;2024-01-07T02:26:53;18.60;;;17.40;;
14013;SDS011;49110;52.584;13.408;2024-01-07T02:27:54;17.83;;;16.67;;
14013;SDS011;49110;52.584;13.408;2024-01-07T02:28:54;17.50;;;16.30;;
14013;SDS011;49110;52.584;13.408;2024-01-07T02:29:54;16.37;;;15.37;;
14013;SDS011;49110;52.584;13.408;2024-01-07T02:30:55;14.50;;;13.50;;
14013;SDS011;49110;52.584;13.408;2024-01-07T02:31:55;15.43;;;14.23;;
14013;SDS011;49110;52.584;13.408;2024-01-07T02:32:56;14.90;;;13.90;;
14013;SDS011;49110;52.584;13.408;2024-01-07T02:34:00;14.40;;;13.30;;
14013;SDS011;49110;52.584;13.408;2024-01-07T02:35:01;14.47;;;13.47;;
14013;SDS011;49110;52.584;13.408;2024-01-07T02:36:01;13.77;;;12.87;;
14013;SDS011;49110;52.584;13.408;2024-01-07T02:37:02;14.30;;;13.40;;
14013;SDS011;49110;52.584;13.408;2024-01-07T02:38:03;13.73;;;12.73;;
14013;SDS011;49110;52.584;13.408;2024-01-07T02:39:03;14.27;;;13.27;;
14013;SDS011;49110;52.584;13.408;2024-01-07T02:40:04;14.17;;;13.27;;
14013;SDS011;49110;52.584;13.408;2024-01-07T02:41:05;14.57;;;13.43;;
14013;SDS011;49110;52.584;13.408;2024-01-07T02:42:05;13.77;;;12.90;;
14013;SDS011;49110;52.584;13.408;2024-01-07T02:43:05;14.93;;;13.93;;
14013;SDS011;49110;52.584;13.408;2024-01-07T02:44:06;15.10;;;14.20;;
14013;SDS011;49110;52.584;13.408;2024-01-07T02:45:07;13.73;;;12.67;;
14013;SDS011;49110;52.584;13.408;2024-01-07T02:46:08;12.53;;;11.73;;
14013;SDS011;49110;52.584;13.408;2024-01-07T02:47:08;14.20;;;13.27;;
14013;SDS011;49110;52.584;13.408;2024-01-07T02:48:09;15.17;;;14.17;;
14013;SDS011;49110;52.584;13.408;2024-01-07T02:49:09;16.13;;;14.93;;
14013;SDS011;49110;52.584;13.408;2024-01-07T02:50:10;16.83;;;15.70;;
14013;SDS011;49110;52.584;13.408;2024-01-07T02:51:10;14.13;;;13.23;;
14013;SDS011;49110;52.584;13.408;2024-01-07T02:52:11;15.33;;;14.23;;
14013;SDS011;49110;52.584;13.408;2024-01-07T02:53:11;15.23;;;14.20;;
14013;SDS011;49110;52.584;13.408;2024-01-07T02:54:12;15.07;;;14.07;;
14013;SDS011;49110;52.584;13.408;2024-01-07T02:55:12;14.97;;;14.07;;
14013;SDS011;49110;52.584;13.408;2024-01-07T02:56:13;13.13;;;12.20;;
14013;SDS011;49110;52.584;13.408;2024-01-07T02:57:14;13.67;;;12.77;;
14013;SDS011;49110;52.584;13.408;2024-01-07T02:58:14;12.27;;;11.50;;
14013;SDS011;49110;52.584;13.408;2024-01-07T02:59:15;12.40;;;11.60;;
14013;SDS011;49110;52.584;13.408;2024-01-07T03:00:15;18.73;;;17.63;;
14013;SDS011;49110;52.584;13.408;2024-01-07T03:01:16;14.67;;;13.67;;
14013;SDS011;49110;52.584;13.408;2024-01-07T03:02:16;16.13;;;15.07;;
14013;SDS011;49110;52.584;13.408;2024-01-07T03:03:17;15.17;;;14.17;;
14013;SDS011;49110;52.584;13.408;2024-01-07T03:04:17;15.03;;;14.23;;
14013;SDS011;49110;52.584;13.408;2024-01-07T03:05:18;15.13;;;14.13;;
14013;SDS011;49110;52.584;13.408;2024-01-07T03:06:18;14.30;;;13.37;;
14013;SDS011;49110;52.584;13.408;2024-01-07T03:07:19;13.83;;;12.93;;
14013;SDS011;49110;52.584;13.408;2024-01-07T03:08:19;13.47;;;12.67;;
14013;SDS011;49110;52.584;13.408;2024-01-07T03:09:20;14.27;;;13.37;;
14013;SDS011;49110;52.584;13.408;2024-01-07T03:10:20;14.03;;;13.23;;
14013;SDS011;49110;52.584;13.408;2024-01-07T03:11:21;14.50;;;13.70;;
14013;SDS011;49110;52.584;13.408;2024-01-07T03:12:21;15.13;;;14.33;;
14013;SDS011;49110;52.584;13.408;2024-01-07T03:13:22;15.33;;;14.33;;
14013;SDS011;49110;52.584;13.408;2024-01-07T03:14:22;16.10;;;15.10;;
14013;SDS011;49110;52.584;13.408;2024-01-07T03:15:23;14.77;;;13.87;;
14013;SDS011;49110;52.584;13.408;2024-01-07T03:16:24;13.57;;;12.77;;
14013;SDS011;49110;52.584;13.408;2024-01-07T03:17:26;13.60;;;12.70;;
14013;SDS011;49110;52.584;13.408;2024-01-07T03:18:27;13.93;;;13.13;;
14013;SDS011;49110;52.584;13.408;2024-01-07T03:19:29;14.05;;;13.20;;
14013;SDS011;49110;52.584;13.408;2024-01-07T03:20:29;14.20;;;13.30;;
14013;SDS011;49110;52.584;13.408;2024-01-07T03:21:30;14.37;;;13.57;;
14013;SDS011;49110;52.584;13.408;2024-01-07T03:22:30;14.53;;;13.63;;
14013;SDS011;49110;52.584;13.408;2024-01-07T03:23:31;15.65;;;14.68;;
14013;SDS011;49110;52.584;13.408;2024-01-07T03:24:32;15.07;;;14.17;;
14013;SDS011;49110;52.584;13.408;2024-01-07T03:25:33;14.63;;;13.70;;
14013;SDS011;49110;52.584;13.408;2024-01-07T03:26:33;14.73;;;13.73;;
14013;SDS011;49110;52.584;13.408;2024-01-07T03:27:34;14.80;;;13.80;;
14013;SDS011;49110;52.584;13.408;2024-01-07T03:28:34;16.07;;;15.17;;
14013;SDS011;49110;52.584;13.408;2024-01-07T03:29:35;15.93;;;15.03;;
14013;SDS011;49110;52.584;13.408;2024-01-07T03:30:36;16.08;;;15.07;;
14013;SDS011;49110;52.584;13.408;2024-01-07T03:31:37;16.30;;;15.30;;
14013;SDS011;49110;52.584;13.408;2024-01-07T03:32:38;15.73;;;14.83;;
14013;SDS011;49110;52.584;13.408;2024-01-07T03:33:39;16.73;;;15.73;;
14013;SDS011;49110;52.584;13.408;2024-01-07T03:34:40;15.98;;;15.00;;
14013;SDS011;49110;52.584;13.408;2024-01-07T03:35:41;15.77;;;14.83;;
14013;SDS011;49110;52.584;13.408;2024-01-07T03:36:41;14.87;;;13.97;;
14013;SDS011;49110;52.584;13.408;2024-01-07T03:37:42;15.93;;;15.00;;
14013;SDS011;49110;52.584;13.408;2024-01-07T03:38:42;16.13;;;15.23;;
14013;SDS011;49110;52.584;13.408;2024-01-07T03:39:43;16.10;;;15.17;;
14013;SDS011;49110;52.584;13.408;2024-01-07T03:40:44;16.10;;;15.10;;
14013;SDS011;49110;52.584;13.408;2024-01-07T03:41:45;16.25;;;15.18;;
14013;SDS011;49110;52.584;13.408;2024-01-07T03:42:46;16.40;;;15.40;;
14013;SDS011;49110;52.584;13.408;2024-01-07T03:43:47;14.60;;;13.70;;
14013;SDS011;49110;52.584;13.408;2024-01-07T03:44:47;15.65;;;14.73;;
14013;SDS011;49110;52.584;13.408;2024-01-07T03:45:48;15.07;;;14.17;;
14013;SDS011;49110;52.584;13.408;2024-01-07T03:46:49;14.93;;;14.02;;
14013;SDS011;49110;52.584;13.408;2024-01-07T03:47:51;14.05;;;13.15;;
14013;SDS011;49110;52.584;13.408;2024-01-07T03:48:51;15.10;;;14.17;;
14013;SDS011;49110;52.584;13.408;2024-01-07T03:49:52;14.37;;;13.50;;
14013;SDS011;49110;52.584;13.408;2024-01-07T03:50:52;15.70;;;14.80;;
14013;SDS011;49110;52.584;13.408;2024-01-07T03:51:53;16.40;;;15.40;;
14013;SDS011;49110;52.584;13.408;2024-01-07T03:52:53;16.30;;;15.40;;
14013;SDS011;49110;52.584;13.408;2024-01-07T03:53:54;15.53;;;14.53;;
14013;SDS011;49110;52.584;13.408;2024-01-07T03:54:54;15.77;;;14.87;;
14013;SDS011;49110;52.584;13.408;2024-01-07T03:55:54;16.27;;;15.37;;
14013;SDS011;49110;52.584;13.408;2024-01-07T03:56:55;15.70;;;14.80;;
14013;SDS011;49110;52.584;13.408;2024-01-07T03:57:55;15.43;;;14.53;;
14013;SDS011;49110;52.584;13.408;2024-01-07T03:58:56;15.90;;;14.90;;
14013;SDS011;49110;52.584;13.408;2024-01-07T03:59:57;15.30;;;14.47;;
14013;SDS011;49110;52.584;13.408;2024-01-07T04:00:57;16.97;;;15.90;;
14013;SDS011;49110;52.584;13.408;2024-01-07T04:01:57;16.07;;;15.17;;
14013;SDS011;49110;52.584;13.408;2024-01-07T04:02:58;16.97;;;16.07;;
14013;SDS011;49110;52.584;13.408;2024-01-07T04:03:59;15.33;;;14.43;;
14013;SDS011;49110;52.584;13.408;2024-01-07T04:04:59;15.40;;;14.50;;
14013;SDS011;49110;52.584;13.408;2024-01-07T04:05:59;15.80;;;14.80;;
14013;SDS011;49110;52.584;13.408;2024-01-07T04:07:00;14.97;;;14.07;;
14013;SDS011;49110;52.584;13.408;2024-01-07T04:08:01;14.63;;;13.73;;
14013;SDS011;49110;52.584;13.408;2024-01-07T04:09:02;14.80;;;13.85;;
14013;SDS011;49110;52.584;13.408;2024-01-07T04:10:04;15.20;;;14.27;;
14013;SDS011;49110;52.584;13.408;2024-01-07T04:11:04;14.87;;;13.97;;
14013;SDS011;49110;52.584;13.408;2024-01-07T04:12:05;15.90;;;14.90;;
14013;SDS011;49110;52.584;13.408;2024-01-07T04:13:06;16.77;;;15.77;;
14013;SDS011;49110;52.584;13.408;2024-01-07T04:14:06;14.67;;;13.77;;
14013;SDS011;49110;52.584;13.408;2024-01-07T04:15:07;14.57;;;13.57;;
14013;SDS011;49110;52.584;13.408;2024-01-07T04:16:17;15.87;;;14.87;;
14013;SDS011;49110;52.584;13.408;2024-01-07T04:17:18;14.18;;;13.18;;
14013;SDS011;49110;52.584;13.408;2024-01-07T04:18:19;14.63;;;13.73;;
14013;SDS011;49110;52.584;13.408;2024-01-07T04:19:19;14.43;;;13.30;;
14013;SDS011;49110;52.584;13.408;2024-01-07T04:20:20;15.20;;;14.30;;
14013;SDS011;49110;52.584;13.408;2024-01-07T04:21:20;16.17;;;15.07;;
14013;SDS011;49110;52.584;13.408;2024-01-07T04:22:21;15.87;;;14.97;;
14013;SDS011;49110;52.584;13.408;2024-01-07T04:23:22;14.50;;;13.67;;
14013;SDS011;49110;52.584;13.408;2024-01-07T04:24:22;16.23;;;15.27;;
14013;SDS011;49110;52.584;13.408;2024-01-07T04:25:23;15.50;;;14.70;;
14013;SDS011;49110;52.584;13.408;2024-01-07T04:26:24;14.88;;;14.02;;
14013;SDS011;49110;52.584;13.408;2024-01-07T04:27:24;14.63;;;13.73;;
14013;SDS011;49110;52.584;13.408;2024-01-07T04:28:25;15.90;;;14.87;;
14013;SDS011;49110;52.584;13.408;2024-01-07T04:29:25;15.10;;;14.20;;
14013;SDS011;49110;52.584;13.408;2024-01-07T04:30:25;15.40;;;14.50;;
14013;SDS011;49110;52.584;13.408;2024-01-07T04:31:26;14.80;;;13.80;;
14013;SDS011;49110;52.584;13.408;2024-01-07T04:32:26;15.87;;;14.90;;
14013;SDS011;49110;52.584;13.408;2024-01-07T04:33:27;13.93;;;13.13;;
14013;SDS011;49110;52.584;13.408;2024-01-07T04:34:27;13.77;;;12.87;;
14013;SDS011;49110;52.584;13.408;2024-01-07T04:35:28;14.47;;;13.60;;
14013;SDS011;49110;52.584;13.408;2024-01-07T04:36:29;12.37;;;11.67;;
14013;SDS011;49110;52.584;13.408;2024-01-07T04:37:29;14.00;;;13.25;;
14013;SDS011;49110;52.584;13.408;2024-01-07T04:38:30;13.73;;;12.93;;
14013;SDS011;49110;52.584;13.408;2024-01-07T04:39:30;14.67;;;13.73;;
14013;SDS011;49110;52.584;13.408;2024-01-07T04:40:30;14.63;;;13.73;;
14013;SDS011;49110;52.584;13.408;2024-01-07T04:41:31;15.33;;;14.53;;
14013;SDS011;49110;52.584;13.408;2024-01-07T04:42:31;14.17;;;13.37;;
14013;SDS011;49110;52.584;13.408;2024-01-07T04:43:32;14.03;;;13.13;;
14013;SDS011;49110;52.584;13.408;2024-01-07T04:44:33;14.25;;;13.32;;
14013;SDS011;49110;52.584;13.408;2024-01-07T04:45:34;14.70;;;13.87;;
14013;SDS011;49110;52.584;13.408;2024-01-07T04:46:37;15.53;;;14.63;;
14013;SDS011;49110;52.584;13.408;2024-01-07T04:47:38;14.40;;;13.50;;
14013;SDS011;49110;52.584;13.408;2024-01-07T04:48:39;13.77;;;12.87;;
14013;SDS011;49110;52.584;13.408;2024-01-07T04:49:39;14.20;;;13.30;;
14013;SDS011;49110;52.584;13.408;2024-01-07T04:50:40;13.07;;;12.27;;
14013;SDS011;49110;52.584;13.408;2024-01-07T04:51:41;12.85;;;12.05;;
14013;SDS011;49110;52.584;13.408;2024-01-07T04:52:42;14.13;;;13.33;;
14013;SDS011;49110;52.584;13.408;2024-01-07T04:53:42;14.23;;;13.33;;
14013;SDS011;49110;52.584;13.408;2024-01-07T04:54:43;12.80;;;12.10;;
14013;SDS011;49110;52.584;13.408;2024-01-07T04:55:43;14.47;;;13.67;;
14013;SDS011;49110;52.584;13.408;2024-01-07T04:56:44;14.10;;;13.30;;
14013;SDS011;49110;52.584;13.408;2024-01-07T04:57:45;13.55;;;12.75;;
14013;SDS011;49110;52.584;13.408;2024-01-07T04:58:46;14.77;;;13.97;;
14013;SDS011;49110;52.584;13.408;2024-01-07T04:59:47;14.77;;;13.77;;
14013;SDS011;49110;52.584;13.408;2024-01-07T05:00:48;15.50;;;14.63;;
14013;SDS011;49110;52.584;13.408;2024-01-07T05:01:48;15.93;;;15.03;;
14013;SDS011;49110;52.584;13.408;2024-01-07T05:02:49;15.67;;;14.77;;
14013;SDS011;49110;52.584;13.408;2024-01-07T05:03:49;15.17;;;14.27;;
14013;SDS011;49110;52.584;13.408;2024-01-07T05:04:50;15.80;;;14.90;;
14013;SDS011;49110;52.584;13.408;2024-01-07T05:05:50;16.73;;;15.83;;
14013;SDS011;49110;52.584;13.408;2024-01-07T05:06:51;15.63;;;14.73;;
14013;SDS011;49110;52.584;13.408;2024-01-07T05:07:51;16.30;;;15.30;;
14013;SDS011;49110;52.584;13.408;2024-01-07T05:08:52;15.10;;;14.15;;
14013;SDS011;49110;52.584;13.408;2024-01-07T05:09:52;16.57;;;15.67;;
14013;SDS011;49110;52.584;13.408;2024-01-07T05:10:53;16.43;;;15.43;;
14013;SDS011;49110;52.584;13.408;2024-01-07T05:11:53;15.93;;;15.03;;
14013;SDS011;49110;52.584;13.408;2024-01-07T05:12:54;16.20;;;15.13;;
14013;SDS011;49110;52.584;13.408;2024-01-07T05:13:54;16.07;;;15.17;;
14013;SDS011;49110;52.584;13.408;2024-01-07T05:14:55;16.53;;;15.60;;
14013;SDS011;49110;52.584;13.408;2024-01-07T05:15:55;16.50;;;15.50;;
14013;SDS011;49110;52.584;13.408;2024-01-07T05:16:56;16.25;;;15.25;;
14013;SDS011;49110;52.584;13.408;2024-01-07T05:17:57;16.00;;;15.10;;
14013;SDS011;49110;52.584;13.408;2024-01-07T05:18:57;15.53;;;14.63;;
14013;SDS011;49110;52.584;13.408;2024-01-07T05:19:58;16.00;;;15.10;;
14013;SDS011;49110;52.584;13.408;2024-01-07T05:20:58;16.37;;;15.47;;
14013;SDS011;49110;52.584;13.408;2024-01-07T05:21:59;15.13;;;14.23;;
14013;SDS011;49110;52.584;13.408;2024-01-07T05:22:59;15.40;;;14.53;;
14013;SDS011;49110;52.584;13.408;2024-01-07T05:23:59;15.20;;;14.27;;
14013;SDS011;49110;52.584;13.408;2024-01-07T05:25:00;14.47;;;13.57;;
14013;SDS011;49110;52.584;13.408;2024-01-07T05:26:00;15.73;;;14.80;;
14013;SDS011;49110;52.584;13.408;2024-01-07T05:27:01;15.47;;;14.53;;
14013;SDS011;49110;52.584;13.408;2024-01-07T05:28:02;17.33;;;16.33;;
14013;SDS011;49110;52.584;13.408;2024-01-07T05:29:02;16.90;;;15.90;;
14013;SDS011;49110;52.584;13.408;2024-01-07T05:30:03;15.90;;;14.93;;
14013;SDS011;49110;52.584;13.408;2024-01-07T05:31:04;16.27;;;15.30;;
14013;SDS011;49110;52.584;13.408;2024-01-07T05:32:05;15.20;;;14.30;;
14013;SDS011;49110;52.584;13.408;2024-01-07T05:33:05;16.63;;;15.67;;
14013;SDS011;49110;52.584;13.408;2024-01-07T05:34:06;16.80;;;15.77;;
14013;SDS011;49110;52.584;13.408;2024-01-07T05:35:07;16.13;;;15.23;;
14013;SDS011;49110;52.584;13.408;2024-01-07T05:36:08;15.13;;;14.30;;
14013;SDS011;49110;52.584;13.408;2024-01-07T05:37:08;17.07;;;16.03;;
14013;SDS011;49110;52.584;13.408;2024-01-07T05:38:09;17.70;;;16.67;;
14013;SDS011;49110;52.584;13.408;2024-01-07T05:39:09;18.07;;;17.07;;
14013;SDS011;49110;52.584;13.408;2024-01-07T05:40:10;16.90;;;15.90;;
14013;SDS011;49110;52.584;13.408;2024-01-07T05:41:11;16.07;;;15.07;;
14013;SDS011;49110;52.584;13.408;2024-01-07T05:42:11;16.40;;;15.53;;
14013;SDS011;49110;52.584;13.408;2024-01-07T05:43:11;16.87;;;15.87;;
14013;SDS011;49110;52.584;13.408;2024-01-07T05:44:12;16.73;;;15.83;;
14013;SDS011;49110;52.584;13.408;2024-01-07T05:45:12;15.03;;;14.17;;
14013;SDS011;49110;52.584;13.408;2024-01-07T05:46:13;16.00;;;14.90;;
14013;SDS011;49110;52.584;13.408;2024-01-07T05:47:14;14.50;;;13.63;;
14013;SDS011;49110;52.584;13.408;2024-01-07T05:48:14;15.47;;;14.57;;
14013;SDS011;49110;52.584;13.408;2024-01-07T05:49:15;14.40;;;13.60;;